createdAt,value
2018-09-07T00:00:08.093Z,13.10
2018-09-07T00:01:06.766Z,13.00
2018-09-07T00:02:07.506Z,13.60
2018-09-07T00:03:07.432Z,13.00
2018-09-07T00:04:06.751Z,13.50
2018-09-07T00:05:06.782Z,13.60
2018-09-07T00:06:09.613Z,12.70
2018-09-07T00:07:06.762Z,12.30
2018-09-07T00:08:07.563Z,12.40
2018-09-07T00:09:07.836Z,13.60
2018-09-07T00:10:06.773Z,13.70
2018-09-07T00:11:07.572Z,15.90
2018-09-07T00:12:08.065Z,13.60
2018-09-07T00:13:10.413Z,12.70
2018-09-07T00:14:07.470Z,11.90
2018-09-07T00:15:08.072Z,13.70
2018-09-07T00:16:06.741Z,14.60
2018-09-07T00:17:08.387Z,12.80
2018-09-07T00:18:07.588Z,12.80
2018-09-07T00:19:08.353Z,13.60
2018-09-07T00:20:07.437Z,12.40
2018-09-07T00:21:07.350Z,12.80
2018-09-07T00:22:08.371Z,12.40
2018-09-07T00:23:07.427Z,12.50
2018-09-07T00:24:06.716Z,12.80
2018-09-07T00:25:08.460Z,12.00
2018-09-07T00:26:07.458Z,12.60
2018-09-07T00:27:06.783Z,12.60
2018-09-07T00:28:10.382Z,13.00
2018-09-07T00:29:07.442Z,11.70
2018-09-07T00:30:07.984Z,11.70
2018-09-07T00:31:07.572Z,12.50
2018-09-07T00:32:07.572Z,13.80
2018-09-07T00:33:06.695Z,12.40
2018-09-07T00:34:08.577Z,13.30
2018-09-07T00:35:07.594Z,12.40
2018-09-07T00:36:06.683Z,13.00
2018-09-07T00:37:06.723Z,13.90
2018-09-07T00:38:07.447Z,13.60
2018-09-07T00:39:06.670Z,13.70
2018-09-07T00:40:08.466Z,14.30
2018-09-07T00:41:07.588Z,14.00
2018-09-07T00:42:06.669Z,14.00
2018-09-07T00:43:07.438Z,14.10
2018-09-07T00:44:07.381Z,14.30
2018-09-07T00:45:08.201Z,14.00
2018-09-07T00:46:06.659Z,18.00
2018-09-07T00:47:06.702Z,17.90
2018-09-07T00:48:10.621Z,22.40
2018-09-07T00:49:07.309Z,20.10
2018-09-07T00:50:08.621Z,19.40
2018-09-07T00:51:07.849Z,18.60
2018-09-07T00:52:06.670Z,28.50
2018-09-07T00:53:08.350Z,18.20
2018-09-07T00:54:07.786Z,18.50
2018-09-07T00:55:06.636Z,18.80
2018-09-07T00:56:09.932Z,19.30
2018-09-07T00:57:07.422Z,22.00
2018-09-07T00:58:06.657Z,21.20
2018-09-07T00:59:08.014Z,18.60
2018-09-07T01:00:08.070Z,17.70
2018-09-07T01:01:06.634Z,17.40
2018-09-07T01:02:09.188Z,18.00
2018-09-07T01:03:07.335Z,16.80
2018-09-07T01:04:06.635Z,16.90
2018-09-07T01:05:08.074Z,18.60
2018-09-07T01:06:07.381Z,17.40
2018-09-07T01:07:10.395Z,18.10
2018-09-07T01:08:07.339Z,19.70
2018-09-07T01:09:07.412Z,19.10
2018-09-07T01:10:10.362Z,19.00
2018-09-07T01:11:07.309Z,19.40
2018-09-07T01:12:07.352Z,19.20
2018-09-07T01:13:10.355Z,18.50
2018-09-07T01:14:07.471Z,20.50
2018-09-07T01:15:07.495Z,19.60
2018-09-07T01:16:06.621Z,18.90
2018-09-07T01:17:07.388Z,19.10
2018-09-07T01:18:06.631Z,17.50
2018-09-07T01:19:07.947Z,17.40
2018-09-07T01:20:07.628Z,18.10
2018-09-07T01:21:07.052Z,17.40
2018-09-07T01:22:06.645Z,17.30
2018-09-07T01:23:07.633Z,17.30
2018-09-07T01:24:07.564Z,17.00
2018-09-07T01:25:06.640Z,16.40
2018-09-07T01:26:07.628Z,16.90
2018-09-07T01:27:07.682Z,16.40
2018-09-07T01:28:06.570Z,17.20
2018-09-07T01:29:07.266Z,18.60
2018-09-07T01:30:07.664Z,17.70
2018-09-07T01:31:06.560Z,16.70
2018-09-07T01:32:08.296Z,18.80
2018-09-07T01:33:07.370Z,19.40
2018-09-07T01:34:06.584Z,19.20
2018-09-07T01:35:09.163Z,19.00
2018-09-07T01:36:06.571Z,19.50
2018-09-07T01:37:07.102Z,19.40
2018-09-07T01:38:06.556Z,18.20
2018-09-07T01:39:06.549Z,19.10
2018-09-07T01:40:06.538Z,17.70
2018-09-07T01:41:07.308Z,18.10
2018-09-07T01:42:06.549Z,17.80
2018-09-07T01:43:07.298Z,19.00
2018-09-07T01:44:07.312Z,17.50
2018-09-07T01:45:06.548Z,18.50
2018-09-07T01:46:07.230Z,19.00
2018-09-07T01:47:08.095Z,18.80
2018-09-07T01:48:06.540Z,18.70
2018-09-07T01:49:07.304Z,18.20
2018-09-07T01:50:07.746Z,18.60
2018-09-07T01:51:07.966Z,19.10
2018-09-07T01:52:07.657Z,18.50
2018-09-07T01:53:07.604Z,18.30
2018-09-07T01:54:10.285Z,17.70
2018-09-07T01:55:07.655Z,19.10
2018-09-07T01:56:07.257Z,19.30
2018-09-07T01:57:06.551Z,19.80
2018-09-07T01:58:07.286Z,18.80
2018-09-07T01:59:07.290Z,18.60
2018-09-07T02:00:06.541Z,18.60
2018-09-07T02:01:07.275Z,19.00
2018-09-07T02:02:07.828Z,19.70
2018-09-07T02:03:08.095Z,20.40
2018-09-07T02:04:07.640Z,18.60
2018-09-07T02:05:06.507Z,19.00
2018-09-07T02:06:08.066Z,19.10
2018-09-07T02:07:08.001Z,18.80
2018-09-07T02:08:07.232Z,19.00
2018-09-07T02:09:09.923Z,19.60
2018-09-07T02:10:07.518Z,19.70
2018-09-07T02:11:07.225Z,19.80
2018-09-07T02:12:10.130Z,19.00
2018-09-07T02:13:07.279Z,20.20
2018-09-07T02:14:07.328Z,19.40
2018-09-07T02:15:08.162Z,18.80
2018-09-07T02:16:07.192Z,19.20
2018-09-07T02:17:06.463Z,20.10
2018-09-07T02:18:07.388Z,19.70
2018-09-07T02:19:07.209Z,19.90
2018-09-07T02:20:06.576Z,20.60
2018-09-07T02:21:08.015Z,21.50
2018-09-07T02:22:07.559Z,20.80
2018-09-07T02:23:06.476Z,21.50
2018-09-07T02:24:06.524Z,22.40
2018-09-07T02:25:07.493Z,21.50
2018-09-07T02:26:07.185Z,21.60
2018-09-07T02:27:07.938Z,21.80
2018-09-07T02:28:07.227Z,20.80
2018-09-07T02:29:07.197Z,21.60
2018-09-07T02:30:07.564Z,22.90
2018-09-07T02:31:07.192Z,22.70
2018-09-07T02:32:06.453Z,23.00
2018-09-07T02:33:08.152Z,20.90
2018-09-07T02:34:07.598Z,22.70
2018-09-07T02:35:06.435Z,22.80
2018-09-07T02:36:08.035Z,22.40
2018-09-07T02:37:07.206Z,21.70
2018-09-07T02:38:06.479Z,21.40
2018-09-07T02:39:07.178Z,21.40
2018-09-07T02:40:06.796Z,21.20
2018-09-07T02:41:06.427Z,22.60
2018-09-07T02:42:07.509Z,22.40
2018-09-07T02:43:07.140Z,23.40
2018-09-07T02:44:06.405Z,23.30
2018-09-07T02:45:07.207Z,23.80
2018-09-07T02:46:07.078Z,24.90
2018-09-07T02:47:07.941Z,21.80
2018-09-07T02:48:07.274Z,23.40
2018-09-07T02:49:07.135Z,22.90
2018-09-07T02:50:07.122Z,22.60
2018-09-07T02:51:07.934Z,21.60
2018-09-07T02:52:07.091Z,23.20
2018-09-07T02:53:07.056Z,23.90
2018-09-07T02:54:07.146Z,24.00
2018-09-07T02:55:07.140Z,23.10
2018-09-07T02:56:07.895Z,24.40
2018-09-07T02:57:07.459Z,24.70
2018-09-07T02:58:07.126Z,23.70
2018-09-07T02:59:07.369Z,22.90
2018-09-07T03:00:07.597Z,23.70
2018-09-07T03:01:07.140Z,24.30
2018-09-07T03:02:08.003Z,25.40
2018-09-07T03:03:07.425Z,24.50
2018-09-07T03:04:07.463Z,26.10
2018-09-07T03:05:06.381Z,25.30
2018-09-07T03:06:07.149Z,25.80
2018-09-07T03:07:07.466Z,22.80
2018-09-07T03:08:08.888Z,23.20
2018-09-07T03:09:07.052Z,25.70
2018-09-07T03:10:07.068Z,26.80
2018-09-07T03:11:07.922Z,27.50
2018-09-07T03:12:07.433Z,27.70
2018-09-07T03:13:06.482Z,26.20
2018-09-07T03:14:08.039Z,27.90
2018-09-07T03:15:07.420Z,27.10
2018-09-07T03:16:06.590Z,27.80
2018-09-07T03:17:06.337Z,28.00
2018-09-07T03:18:07.216Z,28.60
2018-09-07T03:19:07.056Z,28.50
2018-09-07T03:20:07.934Z,30.00
2018-09-07T03:21:07.337Z,32.50
2018-09-07T03:22:06.338Z,30.00
2018-09-07T03:23:07.052Z,28.50
2018-09-07T03:24:06.484Z,27.90
2018-09-07T03:25:06.331Z,29.50
2018-09-07T03:26:07.047Z,30.50
2018-09-07T03:27:07.643Z,29.70
2018-09-07T03:28:06.440Z,29.00
2018-09-07T03:29:07.163Z,31.20
2018-09-07T03:30:07.353Z,27.60
2018-09-07T03:31:06.437Z,30.40
2018-09-07T03:32:09.158Z,30.20
2018-09-07T03:33:07.345Z,30.60
2018-09-07T03:34:06.308Z,32.90
2018-09-07T03:35:07.042Z,31.50
2018-09-07T03:36:07.050Z,30.00
2018-09-07T03:37:06.352Z,31.00
2018-09-07T03:38:06.374Z,30.60
2018-09-07T03:39:06.987Z,31.40
2018-09-07T03:40:06.285Z,30.70
2018-09-07T03:41:06.941Z,30.60
2018-09-07T03:42:07.362Z,30.20
2018-09-07T03:43:06.298Z,32.20
2018-09-07T03:44:06.268Z,33.60
2018-09-07T03:45:07.491Z,31.90
2018-09-07T03:46:06.282Z,30.60
2018-09-07T03:47:06.995Z,32.40
2018-09-07T03:48:07.289Z,31.20
2018-09-07T03:49:06.321Z,33.70
2018-09-07T03:50:06.995Z,34.20
2018-09-07T03:51:07.342Z,33.10
2018-09-07T03:52:06.253Z,33.80
2018-09-07T03:53:06.912Z,33.50
2018-09-07T03:54:07.373Z,34.30
2018-09-07T03:55:06.255Z,33.80
2018-09-07T03:56:06.961Z,32.10
2018-09-07T03:57:06.963Z,32.70
2018-09-07T03:58:06.254Z,32.00
2018-09-07T03:59:07.049Z,32.30
2018-09-07T04:00:07.671Z,31.40
2018-09-07T04:01:06.260Z,28.60
2018-09-07T04:02:06.298Z,30.80
2018-09-07T04:03:07.364Z,32.50
2018-09-07T04:04:07.932Z,32.80
2018-09-07T04:05:08.250Z,32.20
2018-09-07T04:06:09.531Z,30.40
2018-09-07T04:07:09.479Z,32.50
2018-09-07T04:08:09.639Z,34.20
2018-09-07T04:09:09.546Z,34.60
2018-09-07T04:10:09.970Z,32.60
2018-09-07T04:11:07.698Z,34.40
2018-09-07T04:12:07.651Z,31.80
2018-09-07T04:13:07.673Z,33.50
2018-09-07T04:14:10.025Z,34.30
2018-09-07T04:15:07.852Z,35.20
2018-09-07T04:16:07.367Z,33.70
2018-09-07T04:17:07.696Z,35.20
2018-09-07T04:18:07.639Z,32.10
2018-09-07T04:19:07.630Z,33.50
2018-09-07T04:20:07.856Z,33.60
2018-09-07T04:21:07.670Z,34.00
2018-09-07T04:22:07.677Z,34.50
2018-09-07T04:23:07.677Z,36.70
2018-09-07T04:24:07.693Z,35.70
2018-09-07T04:25:07.689Z,36.60
2018-09-07T04:26:07.732Z,31.70
2018-09-07T04:27:07.660Z,34.20
2018-09-07T04:28:07.630Z,34.50
2018-09-07T04:29:07.637Z,36.60
2018-09-07T04:30:07.639Z,37.80
2018-09-07T04:31:07.457Z,36.00
2018-09-07T04:32:07.660Z,37.40
2018-09-07T04:33:07.658Z,39.30
2018-09-07T04:34:07.441Z,40.50
2018-09-07T04:35:07.485Z,42.70
2018-09-07T04:36:07.661Z,36.20
2018-09-07T04:37:07.744Z,37.70
2018-09-07T04:38:07.544Z,38.50
2018-09-07T04:39:07.997Z,38.50
2018-09-07T04:40:07.983Z,39.60
2018-09-07T04:41:08.318Z,37.70
2018-09-07T04:42:08.144Z,37.40
2018-09-07T04:43:07.459Z,40.30
2018-09-07T04:44:07.768Z,37.70
2018-09-07T04:45:09.993Z,39.80
2018-09-07T04:46:07.668Z,37.40
2018-09-07T04:47:07.274Z,41.00
2018-09-07T04:48:07.483Z,40.10
2018-09-07T04:49:07.531Z,38.60
2018-09-07T04:50:07.747Z,38.80
2018-09-07T04:51:07.682Z,38.00
2018-09-07T04:52:07.697Z,37.50
2018-09-07T04:53:07.992Z,41.40
2018-09-07T04:54:07.661Z,39.00
2018-09-07T04:55:07.666Z,38.70
2018-09-07T04:56:07.452Z,39.70
2018-09-07T04:57:07.667Z,41.20
2018-09-07T04:58:07.658Z,38.90
2018-09-07T04:59:07.509Z,38.40
2018-09-07T05:00:08.193Z,40.00
2018-09-07T05:01:07.498Z,39.80
2018-09-07T05:02:07.555Z,37.70
2018-09-07T05:03:07.221Z,39.20
2018-09-07T05:04:07.474Z,40.90
2018-09-07T05:05:07.518Z,35.20
2018-09-07T05:06:07.563Z,36.20
2018-09-07T05:07:07.651Z,36.90
2018-09-07T05:08:07.752Z,35.80
2018-09-07T05:09:07.987Z,35.00
2018-09-07T05:10:07.498Z,36.90
2018-09-07T05:11:07.527Z,35.30
2018-09-07T05:12:07.697Z,34.20
2018-09-07T05:13:07.689Z,34.20
2018-09-07T05:14:07.704Z,35.00
2018-09-07T05:15:07.445Z,34.80
2018-09-07T05:16:07.701Z,34.60
2018-09-07T05:17:07.702Z,35.20
2018-09-07T05:18:07.457Z,34.30
2018-09-07T05:19:08.026Z,33.40
2018-09-07T05:20:07.493Z,34.20
2018-09-07T05:21:08.015Z,31.70
2018-09-07T05:22:08.216Z,33.20
2018-09-07T05:23:07.659Z,31.90
2018-09-07T05:24:07.671Z,32.90
2018-09-07T05:25:07.725Z,30.60
2018-09-07T05:26:08.014Z,33.10
2018-09-07T05:27:07.460Z,31.40
2018-09-07T05:28:07.477Z,31.10
2018-09-07T05:29:07.755Z,32.90
2018-09-07T05:30:08.015Z,32.10
2018-09-07T05:31:07.703Z,30.80
2018-09-07T05:32:07.677Z,32.30
2018-09-07T05:33:08.030Z,32.50
2018-09-07T05:34:08.031Z,34.50
2018-09-07T05:35:07.164Z,36.60
2018-09-07T05:36:07.789Z,32.50
2018-09-07T05:37:07.691Z,33.60
2018-09-07T05:38:07.679Z,34.40
2018-09-07T05:39:07.676Z,35.80
2018-09-07T05:40:07.662Z,34.10
2018-09-07T05:41:07.662Z,34.30
2018-09-07T05:42:07.665Z,35.80
2018-09-07T05:43:07.900Z,34.80
2018-09-07T05:44:07.659Z,34.00
2018-09-07T05:45:07.656Z,35.00
2018-09-07T05:46:07.694Z,34.70
2018-09-07T05:47:07.682Z,34.00
2018-09-07T05:48:07.658Z,35.20
2018-09-07T05:49:07.732Z,35.60
2018-09-07T05:50:07.677Z,35.40
2018-09-07T05:51:07.684Z,32.90
2018-09-07T05:52:07.758Z,33.70
2018-09-07T05:53:07.504Z,32.70
2018-09-07T05:54:07.709Z,33.30
2018-09-07T05:55:07.697Z,31.90
2018-09-07T05:56:07.769Z,35.00
2018-09-07T05:57:07.659Z,35.60
2018-09-07T05:58:08.235Z,34.40
2018-09-07T05:59:07.721Z,35.40
2018-09-07T06:00:07.716Z,33.50
2018-09-07T06:01:07.762Z,34.80
2018-09-07T06:02:09.312Z,33.00
2018-09-07T06:03:07.725Z,33.50
2018-09-07T06:04:07.124Z,34.00
2018-09-07T06:05:07.715Z,33.90
2018-09-07T06:06:08.140Z,34.70
2018-09-07T06:07:07.731Z,35.10
2018-09-07T06:08:07.539Z,35.40
2018-09-07T06:09:08.013Z,34.40
2018-09-07T06:10:07.532Z,36.00
2018-09-07T06:11:07.736Z,36.60
2018-09-07T06:12:07.465Z,40.10
2018-09-07T06:13:09.278Z,34.40
2018-09-07T06:14:07.490Z,32.80
2018-09-07T06:15:07.718Z,34.70
2018-09-07T06:16:08.022Z,33.50
2018-09-07T06:17:07.731Z,31.40
2018-09-07T06:18:08.015Z,34.60
2018-09-07T06:19:07.767Z,32.60
2018-09-07T06:20:07.688Z,31.90
2018-09-07T06:21:07.696Z,33.40
2018-09-07T06:22:07.767Z,29.80
2018-09-07T06:23:07.239Z,38.60
2018-09-07T06:24:07.480Z,31.90
2018-09-07T06:25:07.712Z,38.80
2018-09-07T06:26:07.210Z,35.00
2018-09-07T06:27:09.264Z,33.10
2018-09-07T06:28:07.719Z,33.30
2018-09-07T06:29:07.487Z,32.80
2018-09-07T06:30:07.679Z,35.30
2018-09-07T06:31:08.028Z,39.20
2018-09-07T06:32:07.773Z,37.30
2018-09-07T06:33:08.189Z,36.90
2018-09-07T06:34:07.177Z,38.50
2018-09-07T06:35:08.014Z,39.80
2018-09-07T06:36:07.754Z,38.20
2018-09-07T06:37:07.174Z,38.80
2018-09-07T06:38:08.021Z,33.50
2018-09-07T06:39:07.870Z,38.80
2018-09-07T06:40:07.721Z,37.70
2018-09-07T06:41:13.485Z,36.00
2018-09-07T06:43:40.932Z,39.60
2018-09-07T06:45:40.967Z,41.50
2018-09-07T06:47:01.735Z,36.30
2018-09-07T06:47:42.932Z,38.00
2018-09-07T06:48:43.232Z,41.80
2018-09-07T06:49:40.759Z,38.80
2018-09-07T06:50:40.727Z,37.40
2018-09-07T06:51:41.237Z,38.20
2018-09-07T06:52:42.938Z,37.60
2018-09-07T06:53:40.935Z,38.80
2018-09-07T06:54:42.697Z,41.40
2018-09-07T06:56:02.442Z,36.30
2018-09-07T06:56:46.892Z,38.00
2018-09-07T06:58:55.412Z,39.30
2018-09-07T06:59:41.337Z,37.20
2018-09-07T07:00:43.554Z,37.70
2018-09-07T07:01:43.684Z,38.20
2018-09-07T07:03:07.719Z,39.00
2018-09-07T07:04:03.438Z,37.90
2018-09-07T07:05:18.363Z,39.20
2018-09-07T07:06:01.884Z,38.30
2018-09-07T07:08:43.633Z,36.70
2018-09-07T07:09:47.257Z,38.50
2018-09-07T07:11:02.461Z,38.20
2018-09-07T07:11:43.628Z,38.30
2018-09-07T07:13:01.495Z,39.00
2018-09-07T07:13:40.773Z,38.90
2018-09-07T07:14:47.436Z,43.00
2018-09-07T07:17:14.396Z,39.20
2018-09-07T07:18:12.551Z,41.70
2018-09-07T07:20:18.952Z,43.70
2018-09-07T07:21:08.451Z,43.90
2018-09-07T07:23:13.742Z,44.60
2018-09-07T07:25:19.925Z,46.60
2018-09-07T07:26:18.054Z,44.90
2018-09-07T07:28:17.770Z,47.60
2018-09-07T07:30:27.181Z,51.60
2018-09-07T07:32:41.263Z,47.60
2018-09-07T07:33:41.953Z,48.00
2018-09-07T07:35:36.160Z,47.70
2018-09-07T07:37:53.050Z,47.70
2018-09-07T07:38:52.550Z,46.00
2018-09-07T07:40:46.541Z,45.60
2018-09-07T07:41:47.122Z,45.10
2018-09-07T07:43:52.563Z,43.40
2018-09-07T07:46:07.657Z,44.60
2018-09-07T07:48:22.499Z,42.60
2018-09-07T07:49:22.586Z,42.10
2018-09-07T07:51:17.283Z,43.90
2018-09-07T07:53:31.031Z,41.70
2018-09-07T07:55:52.290Z,40.10
2018-09-07T07:56:45.417Z,39.40
2018-09-07T07:58:54.126Z,40.10
2018-09-07T08:00:54.399Z,41.20
2018-09-07T08:01:54.458Z,40.80
2018-09-07T08:03:48.819Z,41.00
2018-09-07T08:04:49.248Z,39.40
2018-09-07T08:06:42.826Z,39.60
2018-09-07T08:09:38.178Z,38.60
2018-09-07T08:10:38.217Z,39.30
2018-09-07T08:12:32.681Z,40.60
2018-09-07T08:13:32.555Z,41.10
2018-09-07T08:15:27.839Z,39.70
2018-09-07T08:16:27.815Z,39.10
2018-09-07T08:18:21.467Z,41.10
2018-09-07T08:19:21.857Z,40.20
2018-09-07T08:21:29.150Z,39.50
2018-09-07T08:22:15.854Z,38.70
2018-09-07T08:25:07.591Z,37.20
2018-09-07T08:27:04.218Z,37.80
2018-09-07T08:29:18.450Z,36.60
2018-09-07T08:31:32.686Z,35.90
2018-09-07T08:32:33.520Z,35.50
2018-09-07T08:33:33.451Z,35.90
2018-09-07T08:34:32.992Z,36.30
2018-09-07T08:35:33.509Z,35.40
2018-09-07T08:36:33.568Z,34.20
2018-09-07T08:37:33.865Z,34.60
2018-09-07T08:38:39.904Z,34.10
2018-09-07T08:39:33.857Z,34.20
2018-09-07T08:40:33.730Z,36.20
2018-09-07T08:41:48.722Z,35.30
2018-09-07T08:42:34.336Z,35.00
2018-09-07T08:43:40.821Z,33.40
2018-09-07T08:44:47.751Z,35.80
2018-09-07T08:45:33.586Z,34.50
2018-09-07T08:46:33.591Z,34.20
2018-09-07T08:47:54.652Z,35.80
2018-09-07T08:48:33.098Z,33.80
2018-09-07T08:49:33.632Z,33.80
2018-09-07T08:50:48.161Z,34.60
2018-09-07T08:51:35.835Z,34.60
2018-09-07T08:52:36.537Z,34.00
2018-09-07T08:53:34.086Z,34.50
2018-09-07T08:54:32.899Z,34.90
2018-09-07T08:55:34.138Z,33.30
2018-09-07T08:56:33.452Z,33.20
2018-09-07T08:57:33.092Z,34.80
2018-09-07T08:58:54.577Z,34.30
2018-09-07T08:59:31.910Z,32.80
2018-09-07T09:00:33.451Z,34.00
2018-09-07T09:01:34.030Z,32.70
2018-09-07T09:02:32.974Z,34.40
2018-09-07T09:03:33.595Z,34.10
2018-09-07T09:04:34.055Z,34.80
2018-09-07T09:05:33.139Z,35.70
2018-09-07T09:06:33.476Z,34.70
2018-09-07T09:07:32.865Z,35.30
2018-09-07T09:08:33.410Z,35.30
2018-09-07T09:09:32.577Z,35.10
2018-09-07T09:10:33.951Z,35.30
2018-09-07T09:11:33.449Z,35.90
2018-09-07T09:12:33.142Z,36.20
2018-09-07T09:13:35.131Z,35.10
2018-09-07T09:14:32.850Z,35.80
2018-09-07T09:15:33.425Z,35.80
2018-09-07T09:16:33.645Z,35.60
2018-09-07T09:17:32.913Z,36.90
2018-09-07T09:18:33.691Z,36.50
2018-09-07T09:19:32.531Z,37.10
2018-09-07T09:20:33.377Z,37.40
2018-09-07T09:21:33.604Z,37.80
2018-09-07T09:22:36.109Z,37.80
2018-09-07T09:23:33.533Z,37.80
2018-09-07T09:24:33.896Z,39.90
2018-09-07T09:25:33.695Z,38.20
2018-09-07T09:26:33.686Z,37.70
2018-09-07T09:27:33.649Z,36.80
2018-09-07T09:28:33.598Z,35.40
2018-09-07T09:29:33.448Z,37.20
2018-09-07T09:30:34.084Z,37.20
2018-09-07T09:31:33.647Z,36.50
2018-09-07T09:32:33.648Z,36.30
2018-09-07T09:33:33.102Z,38.50
2018-09-07T09:34:33.638Z,35.80
2018-09-07T09:35:33.474Z,35.50
2018-09-07T09:36:33.464Z,33.40
2018-09-07T09:37:33.484Z,34.30
2018-09-07T09:38:33.186Z,34.10
2018-09-07T09:39:34.123Z,33.40
2018-09-07T09:40:33.648Z,33.80
2018-09-07T09:41:34.097Z,33.20
2018-09-07T09:42:33.668Z,33.70
2018-09-07T09:43:33.645Z,32.70
2018-09-07T09:44:33.949Z,33.00
2018-09-07T09:45:33.937Z,33.20
2018-09-07T09:46:33.696Z,34.00
2018-09-07T09:47:34.088Z,34.90
2018-09-07T09:48:33.400Z,33.30
2018-09-07T09:49:33.655Z,35.00
2018-09-07T09:50:33.650Z,36.60
2018-09-07T09:51:33.398Z,34.70
2018-09-07T09:52:33.653Z,35.20
2018-09-07T09:53:33.157Z,34.30
2018-09-07T09:54:35.167Z,35.30
2018-09-07T09:55:33.402Z,36.10
2018-09-07T09:56:34.163Z,35.00
2018-09-07T09:57:33.649Z,34.00
2018-09-07T09:58:33.417Z,35.40
2018-09-07T09:59:33.155Z,35.70
2018-09-07T10:00:33.422Z,34.50
2018-09-07T10:01:33.430Z,33.20
2018-09-07T10:02:33.533Z,34.80
2018-09-07T10:03:33.696Z,35.70
2018-09-07T10:04:33.425Z,34.60
2018-09-07T10:05:33.722Z,32.70
2018-09-07T10:06:33.396Z,33.60
2018-09-07T10:07:33.914Z,34.20
2018-09-07T10:08:33.512Z,32.10
2018-09-07T10:09:33.429Z,31.50
2018-09-07T10:10:33.654Z,30.70
2018-09-07T10:11:33.431Z,29.30
2018-09-07T10:12:33.235Z,29.50
2018-09-07T10:13:33.644Z,30.40
2018-09-07T10:14:33.306Z,30.80
2018-09-07T10:15:33.349Z,30.20
2018-09-07T10:16:33.662Z,29.50
2018-09-07T10:17:35.017Z,28.80
2018-09-07T10:18:33.588Z,29.60
2018-09-07T10:19:33.628Z,30.00
2018-09-07T10:20:33.609Z,32.20
2018-09-07T10:21:33.156Z,30.70
2018-09-07T10:22:33.644Z,29.60
2018-09-07T10:23:32.729Z,28.60
2018-09-07T10:24:32.971Z,28.10
2018-09-07T10:25:34.938Z,27.40
2018-09-07T10:26:33.460Z,25.50
2018-09-07T10:27:47.247Z,25.20
2018-09-07T10:28:34.780Z,25.10
2018-09-07T10:29:33.440Z,23.80
2018-09-07T10:30:33.166Z,25.00
2018-09-07T10:31:39.167Z,22.90
2018-09-07T10:32:32.928Z,22.10
2018-09-07T10:33:33.195Z,22.10
2018-09-07T10:34:33.061Z,20.90
2018-09-07T10:35:33.645Z,22.00
2018-09-07T10:36:32.982Z,21.90
2018-09-07T10:37:36.774Z,21.00
2018-09-07T10:38:33.130Z,19.70
2018-09-07T10:39:32.991Z,20.40
2018-09-07T10:40:33.013Z,19.90
2018-09-07T10:41:47.665Z,18.90
2018-09-07T10:42:33.663Z,17.90
2018-09-07T10:43:33.062Z,18.00
2018-09-07T10:44:36.214Z,17.30
2018-09-07T10:45:33.072Z,16.20
2018-09-07T10:46:33.270Z,16.20
2018-09-07T10:47:35.889Z,15.30
2018-09-07T10:48:33.975Z,14.40
2018-09-07T10:49:33.001Z,13.30
2018-09-07T10:50:33.153Z,13.30
2018-09-07T10:51:38.945Z,14.30
2018-09-07T10:52:33.618Z,13.80
2018-09-07T10:53:32.915Z,13.50
2018-09-07T10:54:33.121Z,13.30
2018-09-07T10:55:33.704Z,12.50
2018-09-07T10:56:47.387Z,12.50
2018-09-07T10:57:33.718Z,12.40
2018-09-07T10:58:34.112Z,12.40
2018-09-07T10:59:32.712Z,11.60
2018-09-07T11:00:33.118Z,10.60
2018-09-07T11:01:33.413Z,10.60
2018-09-07T11:02:33.375Z,9.80
2018-09-07T11:03:33.173Z,11.10
2018-09-07T11:04:33.176Z,9.90
2018-09-07T11:06:08.673Z,9.80
2018-09-07T11:06:33.048Z,10.50
2018-09-07T11:07:33.079Z,10.40
2018-09-07T11:08:33.055Z,9.70
2018-09-07T11:09:33.134Z,8.60
2018-09-07T11:10:33.070Z,7.70
2018-09-07T11:11:33.431Z,7.60
2018-09-07T11:12:33.051Z,7.40
2018-09-07T11:13:33.047Z,7.60
2018-09-07T11:14:33.238Z,7.10
2018-09-07T11:15:33.140Z,7.30
2018-09-07T11:16:33.116Z,7.30
2018-09-07T11:17:47.678Z,7.00
2018-09-07T11:18:33.377Z,7.20
2018-09-07T11:20:33.505Z,6.60
2018-09-07T11:21:33.357Z,7.00
2018-09-07T11:22:34.979Z,6.60
2018-09-07T11:23:33.159Z,7.20
2018-09-07T11:26:20.687Z,6.70
2018-09-07T11:27:06.532Z,6.40
2018-09-07T11:30:43.541Z,6.40
2018-09-07T11:31:34.102Z,6.80
2018-09-07T11:33:40.332Z,6.30
2018-09-07T11:34:30.132Z,6.50
2018-09-07T11:35:30.035Z,6.20
2018-09-07T11:36:49.872Z,6.30
2018-09-07T11:37:30.566Z,6.70
2018-09-07T11:38:32.379Z,6.40
2018-09-07T11:39:29.699Z,7.70
2018-09-07T11:40:29.529Z,6.60
2018-09-07T11:41:44.481Z,6.20
2018-09-07T11:42:29.743Z,6.60
2018-09-07T11:43:29.213Z,6.60
2018-09-07T11:45:36.023Z,6.10
2018-09-07T11:46:29.253Z,5.50
2018-09-07T11:47:30.026Z,6.10
2018-09-07T11:48:53.835Z,6.10
2018-09-07T11:49:31.989Z,5.70
2018-09-07T11:50:29.772Z,5.70
2018-09-07T11:51:31.563Z,5.70
2018-09-07T11:52:29.490Z,5.50
2018-09-07T11:53:29.739Z,5.80
2018-09-07T11:54:29.828Z,5.90
2018-09-07T11:55:49.960Z,6.60
2018-09-07T11:56:29.298Z,6.50
2018-09-07T11:57:30.035Z,6.80
2018-09-07T11:58:29.317Z,6.20
2018-09-07T11:59:29.829Z,6.30
2018-09-07T12:00:50.383Z,6.30
2018-09-07T12:01:29.533Z,6.60
2018-09-07T12:02:57.287Z,6.50
2018-09-07T12:03:35.729Z,6.90
2018-09-07T12:04:29.986Z,7.00
2018-09-07T12:05:29.766Z,7.20
2018-09-07T12:06:29.947Z,6.80
2018-09-07T12:07:29.783Z,6.50
2018-09-07T12:08:29.825Z,6.10
2018-09-07T12:09:31.790Z,6.00
2018-09-07T12:10:29.960Z,4.80
2018-09-07T12:11:29.732Z,4.40
2018-09-07T12:12:31.879Z,4.20
2018-09-07T12:13:29.762Z,3.20
2018-09-07T12:14:30.998Z,3.00
2018-09-07T12:15:30.424Z,3.30
2018-09-07T12:16:29.804Z,2.80
2018-09-07T12:17:56.832Z,3.20
2018-09-07T12:20:22.350Z,3.20
2018-09-07T12:21:30.182Z,3.60
2018-09-07T12:22:18.848Z,3.00
2018-09-07T12:23:02.632Z,3.30
2018-09-07T12:24:28.192Z,2.80
2018-09-07T12:25:09.376Z,4.00
2018-09-07T12:26:02.266Z,3.70
2018-09-07T12:27:02.642Z,2.70
2018-09-07T12:28:02.233Z,2.60
2018-09-07T12:29:29.943Z,3.30
2018-09-07T12:30:02.674Z,3.50
2018-09-07T12:31:02.197Z,3.70
2018-09-07T12:32:02.708Z,3.20
2018-09-07T12:33:02.334Z,3.70
2018-09-07T12:34:02.319Z,3.50
2018-09-07T12:35:03.255Z,3.00
2018-09-07T12:36:02.332Z,3.40
2018-09-07T12:37:02.837Z,4.30
2018-09-07T12:39:36.067Z,2.70
2018-09-07T12:43:24.461Z,3.00
2018-09-07T12:44:24.224Z,2.30
2018-09-07T12:46:57.148Z,4.60
2018-09-07T12:49:12.044Z,3.00
2018-09-07T12:50:14.087Z,3.40
2018-09-07T12:52:07.236Z,3.10
2018-09-07T12:53:07.693Z,3.20
2018-09-07T12:55:01.629Z,4.60
2018-09-07T12:56:01.793Z,3.30
2018-09-07T12:57:56.379Z,2.70
2018-09-07T12:58:56.683Z,3.20
2018-09-07T13:00:50.864Z,2.90
2018-09-07T13:01:51.659Z,2.60
2018-09-07T13:03:45.661Z,3.00
2018-09-07T13:06:00.006Z,2.80
2018-09-07T13:07:00.201Z,2.90
2018-09-07T13:09:06.124Z,3.00
2018-09-07T13:09:53.772Z,3.00
2018-09-07T13:11:50.159Z,3.90
2018-09-07T13:12:51.797Z,2.80
2018-09-07T13:14:58.420Z,4.40
2018-09-07T13:15:44.825Z,3.90
2018-09-07T13:17:38.510Z,3.60
2018-09-07T13:18:39.023Z,4.30
2018-09-07T13:22:47.567Z,3.10
2018-09-07T13:23:47.866Z,2.70
2018-09-07T13:26:02.711Z,3.70
2018-09-07T13:29:09.592Z,2.70
2018-09-07T13:30:10.288Z,2.50
2018-09-07T13:32:04.005Z,4.00
2018-09-07T13:33:04.947Z,2.70
2018-09-07T13:34:58.286Z,3.60
2018-09-07T13:35:58.761Z,4.10
2018-09-07T13:38:00.434Z,5.10
2018-09-07T13:38:53.366Z,3.00
2018-09-07T13:40:48.389Z,4.00
2018-09-07T13:41:48.025Z,4.50
2018-09-07T13:43:42.111Z,4.60
2018-09-07T13:45:56.394Z,3.50
2018-09-07T13:46:57.227Z,4.20
2018-09-07T13:48:50.906Z,4.60
2018-09-07T13:49:53.314Z,4.30
2018-09-07T13:51:44.939Z,4.80
2018-09-07T13:52:45.092Z,5.10
2018-09-07T13:54:39.648Z,4.60
2018-09-07T13:55:39.925Z,4.70
2018-09-07T13:57:33.696Z,4.30
2018-09-07T13:58:34.348Z,4.10
2018-09-07T14:00:49.527Z,3.00
2018-09-07T14:01:28.831Z,4.50
2018-09-07T14:04:24.596Z,3.80
2018-09-07T14:06:19.487Z,5.20
2018-09-07T14:07:17.824Z,4.90
2018-09-07T14:09:11.517Z,3.80
2018-09-07T14:10:12.015Z,4.90
2018-09-07T14:12:06.304Z,3.50
2018-09-07T14:13:06.423Z,3.90
2018-09-07T14:15:03.531Z,4.20
2018-09-07T14:16:27.757Z,4.70
2018-09-07T14:17:03.346Z,3.90
2018-09-07T14:18:03.468Z,2.50
2018-09-07T14:19:04.037Z,3.80
2018-09-07T14:20:03.820Z,3.00
2018-09-07T14:21:03.501Z,2.30
2018-09-07T14:22:22.320Z,2.30
2018-09-07T14:23:04.018Z,2.70